Time;durP1;ratioP1;P1;durP2;ratioP2;P2;SDS_P1;SDS_P2;PMS_P1;PMS_P2;Temp;Humidity;BMP_temperature;BMP_pressure;BME280_temperature;BME280_humidity;BME280_pressure;Samples;Min_cycle;Max_cycle;Signal;HPM_P1;HPM_P2
2023/04/03 00:02:02;;;;;;;;;15.00;12.00;21.70;42.60;;;;;;111495;1237;53651;-62
2023/04/03 00:04:29;;;;;;;;;16.00;13.25;21.70;42.60;;;;;;111377;1238;48981;-62
2023/04/03 00:06:56;;;;;;;;;15.00;12.00;21.70;42.60;;;;;;111372;1243;50412;-62
2023/04/03 00:09:23;;;;;;;;;12.75;11.75;21.70;42.60;;;;;;110988;1243;45184;-62
2023/04/03 00:11:50;;;;;;;;;16.00;11.33;21.70;42.80;;;;;;111331;1243;55655;-61
2023/04/03 00:14:17;;;;;;;;;13.33;11.67;21.70;42.60;;;;;;111388;1243;53443;-62
2023/04/03 00:16:44;;;;;;;;;14.50;12.00;21.70;42.60;;;;;;111419;1237;49546;-61
2023/04/03 00:19:14;;;;;;;;;14.00;12.75;21.70;42.60;;;;;;111232;1237;49224;-61
2023/04/03 00:21:41;;;;;;;;;13.00;11.25;21.70;42.10;;;;;;111222;1239;46011;-61
2023/04/03 00:24:08;;;;;;;;;13.25;12.00;21.60;42.50;;;;;;111405;1243;56804;-62
2023/04/03 00:26:35;;;;;;;;;13.75;12.50;21.60;42.50;;;;;;111430;1243;53588;-61
2023/04/03 00:29:02;;;;;;;;;12.00;10.00;21.60;42.70;;;;;;111274;1239;49493;-61
2023/04/03 00:31:29;;;;;;;;;15.25;14.00;21.60;42.50;;;;;;111409;1247;48706;-61
2023/04/03 00:33:56;;;;;;;;;16.00;12.75;21.60;42.50;;;;;;111400;1243;46548;-65
2023/04/03 00:36:23;;;;;;;;;14.00;11.33;21.60;43.00;;;;;;111549;1237;56005;-64
2023/04/03 00:38:51;;;;;;;;;11.75;10.50;21.60;42.50;;;;;;111252;1243;54141;-63
2023/04/03 00:41:18;;;;;;;;;13.00;12.00;21.60;42.50;;;;;;111377;1240;50734;-62
2023/04/03 00:43:45;;;;;;;;;15.00;11.67;21.60;42.50;;;;;;111215;1243;49124;-63
2023/04/03 00:46:12;;;;;;;;;16.25;13.25;21.60;42.50;;;;;;111242;1244;45568;-63
2023/04/03 00:48:45;;;;;;;;;15.33;13.67;21.60;42.50;;;;;;111068;1241;55286;-62
2023/04/03 00:51:16;;;;;;;;;12.00;10.25;21.50;42.40;;;;;;111396;1238;53595;-63
2023/04/03 00:53:48;;;;;;;;;15.25;11.00;21.50;42.40;;;;;;111481;1238;49588;-61
2023/04/03 00:56:18;;;;;;;;;13.50;12.00;21.60;42.50;;;;;;111506;1239;49630;-64
2023/04/03 00:59:03;;;;;;;;;14.25;12.00;21.50;42.40;;;;;;111258;1237;45210;-63
2023/04/03 01:01:30;;;;;;;;;13.75;10.50;21.50;42.60;;;;;;111310;1237;54988;-62
2023/04/03 01:03:59;;;;;;;;;14.50;12.75;21.50;42.50;;;;;;111163;1237;53235;-64
2023/04/03 01:06:31;;;;;;;;;11.25;10.00;21.50;42.30;;;;;;111473;1241;49779;-64
2023/04/03 01:08:59;;;;;;;;;11.67;10.67;21.50;42.30;;;;;;111345;1244;49618;-63
2023/04/03 01:11:27;;;;;;;;;13.00;12.00;21.50;42.40;;;;;;111293;1240;45545;-63
2023/04/03 01:13:54;;;;;;;;;11.00;9.75;21.50;42.30;;;;;;111403;1237;55263;-63
2023/04/03 01:16:22;;;;;;;;;13.00;10.67;21.40;42.50;;;;;;111476;1237;54903;-62
2023/04/03 01:18:49;;;;;;;;;15.00;12.00;21.40;42.30;;;;;;111184;1240;49239;-63
2023/04/03 01:21:57;;;;;;;;;12.00;10.75;21.50;42.50;;;;;;111241;1243;50018;-65
2023/04/03 01:24:35;;;;;;;;;10.75;8.75;21.40;42.30;;;;;;111454;1238;45679;-64
2023/04/03 01:27:04;;;;;;;;;11.00;9.00;21.40;42.30;;;;;;111428;1243;55297;-61
2023/04/03 01:29:31;;;;;;;;;11.00;9.00;21.40;42.30;;;;;;111239;1243;54213;-63
2023/04/03 01:32:02;;;;;;;;;11.00;9.33;21.40;42.30;;;;;;111203;1243;49587;-65
2023/04/03 01:34:30;;;;;;;;;13.00;11.00;21.40;42.30;;;;;;111343;1242;50063;-63
2023/04/03 01:36:57;;;;;;;;;10.67;9.33;21.40;42.30;;;;;;111463;1237;46226;-61
2023/04/03 01:39:24;;;;;;;;;16.67;10.67;21.40;42.30;;;;;;111178;1242;55805;-61
2023/04/03 01:41:51;;;;;;;;;15.50;13.00;21.40;42.70;;;;;;111244;1242;53591;-61
2023/04/03 01:44:18;;;;;;;;;13.00;10.50;21.40;42.30;;;;;;111295;1243;49414;-61
2023/04/03 01:46:46;;;;;;;;;12.00;10.00;21.40;42.30;;;;;;111408;1243;49402;-61
2023/04/03 01:49:13;;;;;;;;;12.75;10.50;21.40;42.40;;;;;;111270;1238;46310;-61
2023/04/03 01:51:40;;;;;;;;;11.00;9.00;21.30;42.30;;;;;;111332;1238;55138;-61
2023/04/03 01:54:07;;;;;;;;;15.25;11.75;21.30;42.20;;;;;;111459;1242;54032;-60
2023/04/03 01:56:34;;;;;;;;;12.25;10.00;21.30;42.20;;;;;;111383;1243;49571;-62
2023/04/03 01:59:01;;;;;;;;;11.00;9.75;21.30;42.20;;;;;;111152;1238;48895;-63
2023/04/03 02:01:27;;;;;;;;;14.33;11.67;21.30;42.30;;;;;;111361;1243;45570;-62
2023/04/03 02:03:55;;;;;;;;;13.25;10.00;21.30;42.50;;;;;;111334;1237;55395;-62
2023/04/03 02:06:22;;;;;;;;;16.75;12.00;21.30;42.20;;;;;;111401;1237;54013;-62
2023/04/03 02:08:49;;;;;;;;;15.33;12.00;21.30;42.20;;;;;;111346;1238;48948;-63
2023/04/03 02:11:16;;;;;;;;;11.00;10.00;21.30;42.70;;;;;;111468;1238;49720;-63
2023/04/03 02:13:43;;;;;;;;;13.00;10.00;21.30;42.20;;;;;;111463;1238;45559;-62
2023/04/03 02:16:12;;;;;;;;;12.25;11.00;21.30;42.20;;;;;;111490;1237;55371;-62
2023/04/03 02:18:40;;;;;;;;;13.00;11.25;21.20;42.10;;;;;;111204;1239;54722;-61
2023/04/03 02:21:06;;;;;;;;;12.25;9.75;21.20;42.10;;;;;;111285;1243;49785;-61
2023/04/03 02:23:35;;;;;;;;;14.75;11.50;21.20;42.10;;;;;;111214;1238;49091;-61
2023/04/03 02:26:07;;;;;;;;;13.00;9.75;21.20;42.10;;;;;;111428;1243;45476;-62
2023/04/03 02:28:34;;;;;;;;;11.00;9.00;21.20;42.10;;;;;;111223;1238;55467;-62
2023/04/03 02:31:02;;;;;;;;;12.00;11.00;21.20;42.30;;;;;;111422;1243;54801;-61
2023/04/03 02:33:29;;;;;;;;;11.00;10.00;21.20;42.00;;;;;;111377;1243;49782;-62
2023/04/03 02:35:57;;;;;;;;;11.00;10.00;21.20;42.00;;;;;;111557;1237;49989;-62
2023/04/03 02:38:25;;;;;;;;;10.67;9.67;21.20;42.00;;;;;;111208;1238;46706;-62
2023/04/03 02:40:52;;;;;;;;;12.00;10.25;21.20;42.00;;;;;;111434;1237;56690;-61
2023/04/03 02:43:19;;;;;;;;;11.00;10.00;21.20;42.00;;;;;;111274;1238;53652;-61
2023/04/03 02:45:46;;;;;;;;;18.25;11.25;21.20;42.00;;;;;;111343;1244;49918;-62
2023/04/03 02:48:14;;;;;;;;;14.50;11.00;21.20;42.00;;;;;;111186;1238;49603;-62
2023/04/03 02:50:41;;;;;;;;;12.00;11.00;21.10;41.90;;;;;;111402;1243;45960;-62
2023/04/03 02:53:08;;;;;;;;;13.25;10.25;21.10;41.40;;;;;;111286;1243;55889;-61
2023/04/03 02:55:35;;;;;;;;;11.75;10.00;21.20;41.90;;;;;;111482;1238;53497;-61
2023/04/03 02:58:03;;;;;;;;;10.00;9.00;21.10;41.80;;;;;;111196;1242;49351;-62
2023/04/03 03:00:30;;;;;;;;;11.50;10.00;21.10;41.90;;;;;;111461;1240;49902;-62
2023/04/03 03:02:57;;;;;;;;;11.25;10.00;21.10;41.80;;;;;;111383;1243;45326;-62
2023/04/03 03:05:24;;;;;;;;;13.50;10.25;21.10;41.80;;;;;;111273;1241;54963;-61
2023/04/03 03:07:51;;;;;;;;;12.00;10.00;21.10;42.30;;;;;;111177;1238;53437;-62
2023/04/03 03:10:18;;;;;;;;;12.00;10.75;21.10;42.10;;;;;;111399;1241;49354;-61
2023/04/03 03:12:45;;;;;;;;;12.00;10.25;21.10;41.80;;;;;;111269;1241;50163;-63
2023/04/03 03:15:12;;;;;;;;;13.00;10.75;21.10;41.80;;;;;;111348;1243;45193;-62
2023/04/03 03:17:39;;;;;;;;;11.75;10.25;21.10;41.80;;;;;;111259;1238;56246;-62
2023/04/03 03:20:07;;;;;;;;;11.50;10.00;21.00;41.70;;;;;;111434;1244;54098;-63
2023/04/03 03:22:34;;;;;;;;;12.00;11.00;21.10;41.80;;;;;;111440;1243;49562;-62
2023/04/03 03:25:02;;;;;;;;;12.00;10.25;21.00;42.30;;;;;;111468;1242;49687;-62
2023/04/03 03:27:29;;;;;;;;;10.00;9.00;21.00;41.70;;;;;;111184;1242;45542;-61
2023/04/03 03:29:56;;;;;;;;;10.25;9.00;21.00;41.90;;;;;;111440;1243;55394;-62
2023/04/03 03:32:23;;;;;;;;;11.75;10.25;21.00;41.70;;;;;;111385;1237;54548;-61
2023/04/03 03:34:50;;;;;;;;;11.00;10.00;21.00;41.90;;;;;;111250;1238;50048;-62
2023/04/03 03:37:17;;;;;;;;;11.00;10.00;21.00;41.70;;;;;;111312;1240;49851;-62
2023/04/03 03:39:44;;;;;;;;;13.00;10.75;21.00;41.70;;;;;;111538;1242;46808;-63
2023/04/03 03:42:11;;;;;;;;;13.00;11.00;21.00;41.70;;;;;;111427;1242;55645;-62
2023/04/03 03:44:38;;;;;;;;;11.00;9.50;21.00;41.70;;;;;;111236;1243;53353;-62
2023/04/03 03:47:05;;;;;;;;;12.25;11.00;21.00;41.70;;;;;;111378;1242;49568;-62
2023/04/03 03:49:32;;;;;;;;;12.75;11.75;21.00;41.70;;;;;;111248;1237;50091;-59
2023/04/03 03:51:59;;;;;;;;;10.67;9.67;21.00;41.70;;;;;;111395;1243;45156;-62
2023/04/03 03:54:26;;;;;;;;;13.00;11.75;21.00;41.70;;;;;;111404;1242;56070;-61
2023/04/03 03:56:53;;;;;;;;;15.75;13.25;21.00;41.70;;;;;;111436;1237;53956;-62
2023/04/03 03:59:20;;;;;;;;;10.75;10.00;20.90;41.60;;;;;;111127;1237;49648;-62
2023/04/03 04:01:47;;;;;;;;;13.00;11.75;20.90;41.80;;;;;;111292;1243;49384;-62
2023/04/03 04:04:14;;;;;;;;;10.67;9.00;20.90;41.50;;;;;;111185;1239;45349;-62
2023/04/03 04:06:41;;;;;;;;;30.00;19.00;20.90;41.70;;;;;;111582;1241;55778;-63
2023/04/03 04:09:09;;;;;;;;;34.00;26.00;20.90;44.30;;;;;;111134;1242;53901;-63
2023/04/03 04:11:36;;;;;;;;;22.50;19.00;20.90;46.40;;;;;;111456;1243;49790;-65
2023/04/03 04:14:03;;;;;;;;;22.25;17.75;20.90;46.90;;;;;;111508;1237;51069;-63
2023/04/03 04:16:30;;;;;;;;;21.00;18.50;20.90;47.10;;;;;;111363;1243;45136;-62
2023/04/03 04:18:57;;;;;;;;;22.00;17.00;21.00;47.10;;;;;;111221;1243;56094;-63
2023/04/03 04:21:24;;;;;;;;;21.25;17.00;21.00;48.50;;;;;;111420;1239;54517;-62
2023/04/03 04:23:51;;;;;;;;;20.75;15.50;21.10;47.70;;;;;;111453;1239;49611;-63
2023/04/03 04:26:18;;;;;;;;;21.50;17.75;21.20;48.20;;;;;;111471;1242;49527;-66
2023/04/03 04:28:45;;;;;;;;;19.25;14.50;21.20;47.80;;;;;;111288;1237;46229;-64
2023/04/03 04:31:11;;;;;;;;;18.00;15.33;21.30;47.90;;;;;;111396;1237;55498;-64
2023/04/03 04:33:38;;;;;;;;;19.50;16.00;21.30;48.00;;;;;;111427;1239;53251;-63
2023/04/03 04:36:06;;;;;;;;;20.00;16.75;21.40;48.00;;;;;;111483;1238;49294;-63
2023/04/03 04:38:33;;;;;;;;;20.00;16.50;21.30;47.70;;;;;;111055;1242;48804;-63
2023/04/03 04:41:00;;;;;;;;;21.50;18.50;21.40;48.50;;;;;;111333;1237;45305;-63
2023/04/03 04:43:27;;;;;;;;;18.00;15.00;21.40;48.40;;;;;;111160;1238;56243;-63
2023/04/03 04:46:09;;;;;;;;;22.75;20.25;21.40;47.70;;;;;;111167;1243;54269;-64
2023/04/03 04:48:36;;;;;;;;;20.00;16.00;21.40;48.20;;;;;;111083;1237;50065;-63
2023/04/03 04:51:03;;;;;;;;;17.50;14.00;21.50;48.10;;;;;;111377;1237;49005;-63
2023/04/03 04:53:30;;;;;;;;;17.25;13.25;21.60;48.00;;;;;;111277;1238;46131;-64
2023/04/03 04:55:57;;;;;;;;;16.50;15.00;21.60;49.40;;;;;;111382;1237;55994;-62
2023/04/03 04:58:25;;;;;;;;;18.25;14.25;21.70;51.30;;;;;;111235;1237;53402;-64
2023/04/03 05:01:02;;;;;;;;;15.00;13.50;21.70;52.00;;;;;;111460;1237;49325;-63
2023/04/03 05:03:29;;;;;;;;;22.00;15.50;21.70;52.00;;;;;;111324;1238;49737;-62
2023/04/03 05:05:56;;;;;;;;;14.75;12.50;21.80;52.10;;;;;;111379;1238;46754;-62
2023/04/03 05:08:24;;;;;;;;;13.75;12.00;21.80;51.50;;;;;;111344;1242;55427;-61
2023/04/03 05:10:52;;;;;;;;;16.25;14.75;21.80;51.10;;;;;;111391;1245;53615;-60
2023/04/03 05:13:20;;;;;;;;;22.50;13.75;21.90;50.60;;;;;;111408;1238;50328;-59
2023/04/03 05:15:47;;;;;;;;;16.67;12.67;21.90;49.80;;;;;;111403;1240;49284;-61
2023/04/03 05:18:14;;;;;;;;;18.25;15.50;21.80;49.40;;;;;;111225;1242;45696;-61
2023/04/03 05:20:41;;;;;;;;;18.25;14.00;21.80;49.10;;;;;;111204;1241;56231;-62
2023/04/03 05:23:09;;;;;;;;;21.33;17.67;21.80;48.70;;;;;;111296;1243;53434;-63
2023/04/03 05:25:40;;;;;;;;;25.00;16.33;21.80;48.50;;;;;;111328;1243;49502;-60
2023/04/03 05:28:07;;;;;;;;;14.50;12.00;21.80;48.20;;;;;;111196;1238;48787;-62
2023/04/03 05:30:34;;;;;;;;;16.25;15.00;21.80;48.00;;;;;;111336;1241;45494;-62
2023/04/03 05:33:02;;;;;;;;;15.75;12.25;21.80;47.80;;;;;;111361;1238;55690;-61
2023/04/03 05:35:29;;;;;;;;;19.25;15.25;21.80;47.60;;;;;;111391;1238;54376;-61
2023/04/03 05:37:56;;;;;;;;;18.50;13.50;21.70;47.40;;;;;;111407;1237;49403;-60
2023/04/03 05:40:23;;;;;;;;;14.75;13.00;21.80;47.20;;;;;;111501;1240;49961;-62
2023/04/03 05:42:50;;;;;;;;;16.00;13.33;21.70;46.90;;;;;;111426;1237;45932;-62
2023/04/03 05:45:17;;;;;;;;;16.00;13.00;21.70;46.80;;;;;;111468;1238;56066;-60
2023/04/03 05:47:44;;;;;;;;;17.75;14.50;21.70;46.50;;;;;;111457;1238;54530;-62
2023/04/03 05:50:11;;;;;;;;;12.00;10.67;21.70;46.30;;;;;;111424;1243;50792;-63
2023/04/03 05:52:41;;;;;;;;;16.50;14.00;21.70;46.10;;;;;;111419;1242;49297;-63
2023/04/03 05:55:08;;;;;;;;;19.50;14.50;21.70;45.90;;;;;;111535;1238;45988;-62
2023/04/03 05:57:35;;;;;;;;;13.00;12.00;21.70;45.70;;;;;;111452;1242;55484;-61
2023/04/03 06:00:05;;;;;;;;;11.75;10.75;21.70;45.50;;;;;;111426;1238;53397;-62
2023/04/03 06:02:32;;;;;;;;;17.00;12.33;21.70;45.40;;;;;;111461;1242;49225;-62
2023/04/03 06:04:59;;;;;;;;;17.50;13.25;21.70;45.50;;;;;;111485;1238;49570;-61
2023/04/03 06:07:28;;;;;;;;;16.00;12.75;21.70;45.10;;;;;;111389;1242;45926;-62
2023/04/03 06:09:56;;;;;;;;;14.75;12.25;21.70;45.00;;;;;;111444;1242;55456;-64
2023/04/03 06:12:23;;;;;;;;;15.50;12.00;21.60;44.90;;;;;;111406;1242;53999;-63
2023/04/03 06:14:51;;;;;;;;;13.00;12.00;21.60;44.60;;;;;;111429;1238;49811;-60
2023/04/03 06:17:18;;;;;;;;;13.00;11.00;21.60;44.30;;;;;;111408;1243;49562;-61
2023/04/03 06:19:45;;;;;;;;;14.00;13.00;21.60;44.30;;;;;;111425;1242;46787;-62
2023/04/03 06:22:13;;;;;;;;;18.25;13.25;21.50;43.50;;;;;;111349;1243;56801;-60
2023/04/03 06:24:41;;;;;;;;;15.00;11.33;21.50;44.40;;;;;;111355;1240;53419;-63
2023/04/03 06:27:10;;;;;;;;;14.67;13.67;21.60;44.60;;;;;;111406;1241;49496;-62
2023/04/03 06:29:37;;;;;;;;;13.50;10.75;21.60;44.30;;;;;;111243;1243;50083;-60
2023/04/03 06:32:04;;;;;;;;;13.00;11.75;21.60;43.80;;;;;;111335;1237;45269;-61
2023/04/03 06:34:31;;;;;;;;;14.50;12.00;21.60;43.20;;;;;;111353;1242;55006;-63
2023/04/03 06:36:58;;;;;;;;;13.67;11.00;21.70;43.90;;;;;;111406;1238;54610;-63
2023/04/03 06:39:25;;;;;;;;;13.25;12.00;21.70;43.60;;;;;;111492;1241;48925;-63
2023/04/03 06:41:52;;;;;;;;;14.50;13.00;21.70;43.30;;;;;;111382;1243;49204;-64
2023/04/03 06:44:19;;;;;;;;;13.00;12.00;21.70;43.90;;;;;;112060;1237;45851;-58
2023/04/03 06:46:47;;;;;;;;;14.67;13.00;21.80;43.70;;;;;;111363;1242;56009;-58
2023/04/03 06:49:14;;;;;;;;;12.00;10.25;21.80;43.20;;;;;;111419;1237;53575;-61
2023/04/03 06:51:42;;;;;;;;;12.50;11.00;21.90;43.40;;;;;;111418;1243;49073;-60
2023/04/03 06:54:09;;;;;;;;;11.00;9.75;21.90;43.20;;;;;;111475;1237;49135;-60
2023/04/03 06:56:36;;;;;;;;;12.33;10.67;21.90;43.50;;;;;;111544;1238;45847;-57
2023/04/03 06:59:03;;;;;;;;;12.00;10.75;21.90;43.20;;;;;;111400;1238;55354;-57
2023/04/03 07:01:30;;;;;;;;;12.00;10.75;21.90;43.00;;;;;;111573;1238;53874;-58
2023/04/03 07:03:57;;;;;;;;;14.50;12.00;21.80;42.90;;;;;;111430;1244;49644;-58
2023/04/03 07:06:26;;;;;;;;;10.75;9.00;21.80;42.90;;;;;;111434;1237;49564;-59
2023/04/03 07:08:54;;;;;;;;;12.25;11.00;21.80;42.90;;;;;;111431;1238;46283;-60
2023/04/03 07:11:22;;;;;;;;;13.00;11.67;21.80;42.90;;;;;;111519;1238;55535;-60
2023/04/03 07:13:50;;;;;;;;;12.00;10.75;21.90;42.90;;;;;;111437;1237;53971;-57
2023/04/03 07:16:17;;;;;;;;;10.00;9.00;21.90;43.00;;;;;;111536;1239;49573;-60
2023/04/03 07:18:44;;;;;;;;;11.00;9.00;21.90;42.80;;;;;;111501;1237;49915;-59
2023/04/03 07:21:13;;;;;;;;;12.00;10.00;21.90;42.60;;;;;;110974;1238;667875;-57
2023/04/03 07:23:39;;;;;;;;;13.00;12.00;21.90;42.30;;;;;;111433;1238;55631;-57
2023/04/03 07:26:07;;;;;;;;;12.00;10.00;22.00;42.70;;;;;;111488;1237;53875;-58
2023/04/03 07:28:36;;;;;;;;;11.25;10.00;22.00;42.60;;;;;;111515;1237;49322;-57
2023/04/03 07:31:07;;;;;;;;;13.00;10.00;22.00;42.50;;;;;;111447;1238;49870;-58
2023/04/03 07:33:35;;;;;;;;;13.25;10.25;22.00;42.60;;;;;;111525;1237;45049;-58
2023/04/03 07:36:03;;;;;;;;;11.00;10.00;22.00;42.50;;;;;;111483;1240;55995;-57
2023/04/03 07:38:30;;;;;;;;;13.67;12.33;22.10;42.60;;;;;;111548;1242;53355;-58
2023/04/03 07:40:57;;;;;;;;;14.67;11.67;22.10;42.70;;;;;;111435;1242;51159;-58
2023/04/03 07:43:25;;;;;;;;;11.00;9.75;22.10;42.30;;;;;;111564;1240;50149;-57
2023/04/03 07:45:53;;;;;;;;;14.25;12.50;22.20;42.30;;;;;;111455;1243;45162;-57
2023/04/03 07:48:22;;;;;;;;;11.67;10.67;22.20;42.30;;;;;;111439;1239;56062;-57
2023/04/03 07:50:50;;;;;;;;;10.75;9.75;22.20;42.10;;;;;;111481;1237;53631;-56
2023/04/03 07:53:18;;;;;;;;;10.00;9.00;22.20;42.30;;;;;;111407;1242;49015;-59
2023/04/03 07:55:48;;;;;;;;;12.00;10.75;22.20;42.10;;;;;;111371;1242;49377;-57
2023/04/03 07:58:17;;;;;;;;;11.00;9.00;22.30;42.10;;;;;;111444;1243;45406;-57
2023/04/03 08:00:45;;;;;;;;;11.00;10.00;22.30;42.30;;;;;;111481;1242;55541;-57
2023/04/03 08:03:13;;;;;;;;;12.67;10.00;22.30;42.30;;;;;;111425;1238;53761;-57
2023/04/03 08:05:41;;;;;;;;;11.00;10.00;22.30;42.00;;;;;;111406;1242;50495;-58
2023/04/03 08:08:10;;;;;;;;;12.00;11.00;22.30;42.00;;;;;;111435;1242;49778;-59
2023/04/03 08:10:37;;;;;;;;;15.50;12.50;22.30;42.30;;;;;;111420;1243;46226;-57
2023/04/03 08:13:04;;;;;;;;;12.00;10.75;22.40;42.10;;;;;;111540;1241;55746;-57
2023/04/03 08:15:31;;;;;;;;;11.00;10.00;22.40;42.00;;;;;;111398;1237;54046;-57
2023/04/03 08:18:00;;;;;;;;;13.50;11.00;22.40;41.90;;;;;;111455;1243;49360;-57
2023/04/03 08:20:28;;;;;;;;;11.00;10.00;22.40;41.60;;;;;;111551;1247;49203;-58
2023/04/03 08:22:55;;;;;;;;;13.00;11.75;22.40;42.00;;;;;;111487;1237;45885;-58
2023/04/03 08:25:22;;;;;;;;;10.67;9.67;22.40;41.80;;;;;;111397;1242;56650;-59
2023/04/03 08:27:49;;;;;;;;;11.50;10.00;22.40;41.70;;;;;;111400;1247;53471;-57
2023/04/03 08:30:16;;;;;;;;;11.00;9.33;22.40;41.90;;;;;;111320;1242;49297;-60
2023/04/03 08:32:44;;;;;;;;;10.00;9.00;22.40;41.70;;;;;;111459;1243;49026;-58
2023/04/03 08:35:11;;;;;;;;;11.00;10.00;22.40;41.70;;;;;;111554;1238;46098;-58
2023/04/03 08:37:39;;;;;;;;;10.00;8.75;22.40;41.60;;;;;;111407;1243;55402;-58
2023/04/03 08:40:11;;;;;;;;;13.75;11.00;22.50;42.00;;;;;;111492;1243;53273;-56
2023/04/03 08:42:53;;;;;;;;;12.00;11.00;22.50;42.10;;;;;;111501;1243;48987;-58
2023/04/03 08:45:26;;;;;;;;;10.75;9.75;22.50;41.40;;;;;;111500;1242;49184;-57
2023/04/03 08:48:02;;;;;;;;;10.75;9.50;22.50;41.30;;;;;;111503;1240;46118;-58
2023/04/03 08:50:34;;;;;;;;;12.00;11.00;22.50;41.30;;;;;;111243;1243;56086;-57
2023/04/03 08:53:04;;;;;;;;;13.67;9.67;22.60;41.30;;;;;;111400;1243;54914;-58
2023/04/03 08:55:40;;;;;;;;;10.00;9.00;22.60;41.20;;;;;;111446;1240;49310;-58
2023/04/03 08:58:32;;;;;;;;;14.67;12.00;22.70;41.20;;;;;;111490;1242;49666;-58
2023/04/03 09:01:05;;;;;;;;;13.75;10.25;22.60;41.10;;;;;;111329;1242;46026;-58
2023/04/03 09:03:36;;;;;;;;;12.00;10.75;22.70;41.10;;;;;;111390;1243;55075;-58
2023/04/03 09:06:07;;;;;;;;;10.00;9.00;22.70;40.90;;;;;;111477;1238;53939;-59
2023/04/03 09:08:44;;;;;;;;;13.25;12.00;22.70;41.40;;;;;;111366;1243;49777;-60
2023/04/03 09:11:21;;;;;;;;;11.00;9.75;22.70;41.10;;;;;;111528;1240;49436;-59
2023/04/03 09:14:15;;;;;;;;;12.67;11.67;22.70;41.00;;;;;;111492;1237;46639;-60
2023/04/03 09:16:55;;;;;;;;;12.75;10.75;22.70;41.00;;;;;;111415;1238;55703;-60
2023/04/03 09:19:32;;;;;;;;;11.75;9.75;22.70;41.10;;;;;;111469;1242;53746;-61
2023/04/03 09:22:26;;;;;;;;;12.75;11.00;22.70;41.20;;;;;;111508;1237;51219;-58
2023/04/03 09:25:00;;;;;;;;;11.67;10.33;22.60;41.00;;;;;;111436;1237;50029;-57
2023/04/03 09:27:28;;;;;;;;;13.00;11.00;22.60;41.20;;;;;;111202;1238;45616;-57
2023/04/03 09:29:56;;;;;;;;;15.00;10.67;22.60;41.30;;;;;;111399;1237;55766;-57
2023/04/03 09:32:36;;;;;;;;;13.00;10.75;22.60;41.30;;;;;;111452;1237;54084;-57
2023/04/03 09:35:26;;;;;;;;;13.00;10.75;22.60;41.20;;;;;;111549;1237;49458;-57
2023/04/03 09:38:00;;;;;;;;;12.25;11.00;22.70;41.20;;;;;;111465;1243;49656;-57
2023/04/03 09:40:38;;;;;;;;;12.25;9.75;22.70;41.20;;;;;;111349;1242;45749;-57
2023/04/03 09:43:17;;;;;;;;;10.00;9.00;22.80;41.10;;;;;;111470;1238;56042;-59
2023/04/03 09:45:47;;;;;;;;;11.00;9.75;22.80;41.30;;;;;;111477;1242;54230;-59
2023/04/03 09:48:13;;;;;;;;;10.00;8.75;22.80;41.10;;;;;;111491;1237;49745;-58
2023/04/03 09:51:01;;;;;;;;;11.25;10.00;22.80;41.10;;;;;;111376;1237;49158;-59
2023/04/03 09:53:28;;;;;;;;;10.75;9.75;22.80;41.10;;;;;;111374;1238;45952;-59
2023/04/03 09:55:56;;;;;;;;;11.00;9.75;22.80;41.10;;;;;;111405;1237;55009;-57
2023/04/03 09:58:38;;;;;;;;;12.67;10.00;22.70;40.90;;;;;;111404;1243;53648;-57
2023/04/03 10:01:06;;;;;;;;;10.50;9.00;22.70;40.50;;;;;;111521;1243;49143;-57
2023/04/03 10:03:35;;;;;;;;;12.25;11.00;22.70;40.90;;;;;;111460;1237;49938;-58
2023/04/03 10:06:03;;;;;;;;;11.00;10.00;22.70;40.90;;;;;;111538;1237;45492;-57
2023/04/03 10:08:33;;;;;;;;;13.00;9.75;22.70;40.90;;;;;;111442;1239;55891;-57
2023/04/03 10:11:14;;;;;;;;;10.75;9.25;22.70;40.80;;;;;;111451;1242;53855;-59
2023/04/03 10:14:16;;;;;;;;;10.75;9.75;22.70;40.80;;;;;;111300;1238;49191;-59
2023/04/03 10:16:49;;;;;;;;;10.75;9.00;22.70;40.70;;;;;;111271;1237;49121;-57
2023/04/03 10:19:26;;;;;;;;;11.00;10.00;22.70;41.20;;;;;;111503;1238;45523;-59
2023/04/03 10:22:00;;;;;;;;;12.75;11.00;22.80;40.80;;;;;;111439;1243;56572;-59
2023/04/03 10:24:33;;;;;;;;;10.75;9.00;22.80;41.20;;;;;;111660;1242;54031;-58
2023/04/03 10:27:18;;;;;;;;;10.75;9.75;22.80;41.00;;;;;;111454;1238;49774;-58
2023/04/03 10:29:45;;;;;;;;;11.00;10.00;22.80;40.90;;;;;;111242;1244;49081;-58
2023/04/03 10:32:26;;;;;;;;;10.33;9.00;22.80;40.90;;;;;;111317;1242;46228;-58
2023/04/03 10:35:10;;;;;;;;;11.00;10.00;22.80;40.70;;;;;;111461;1238;55754;-58
2023/04/03 10:37:40;;;;;;;;;11.50;10.25;22.80;40.90;;;;;;111356;1242;54277;-57
2023/04/03 10:40:31;;;;;;;;;11.67;10.00;22.80;40.70;;;;;;111529;1238;49140;-58
2023/04/03 10:43:15;;;;;;;;;10.00;9.00;22.90;40.90;;;;;;111638;1240;49673;-58
2023/04/03 10:45:42;;;;;;;;;15.00;13.00;22.90;40.80;;;;;;111479;1243;45266;-57
2023/04/03 10:48:11;;;;;;;;;12.00;9.00;22.90;40.50;;;;;;111601;1238;56160;-55
2023/04/03 10:50:44;;;;;;;;;11.75;10.00;22.90;40.50;;;;;;111539;1243;54182;-58
2023/04/03 10:53:17;;;;;;;;;11.25;10.00;22.90;40.40;;;;;;111579;1237;50171;-60
2023/04/03 10:55:50;;;;;;;;;10.00;9.00;22.90;40.40;;;;;;111556;1243;48837;-60
2023/04/03 10:58:30;;;;;;;;;14.25;10.00;22.90;40.40;;;;;;111552;1239;45499;-59
2023/04/03 11:01:03;;;;;;;;;14.67;13.00;22.90;40.40;;;;;;111559;1243;56026;-57
2023/04/03 11:03:36;;;;;;;;;11.75;10.50;22.90;40.40;;;;;;111340;1240;53635;-59
2023/04/03 11:06:09;;;;;;;;;10.67;9.00;22.90;40.40;;;;;;111713;1237;49534;-58
2023/04/03 11:09:06;;;;;;;;;12.00;10.25;22.90;40.30;;;;;;111515;1238;48834;-58
2023/04/03 11:11:36;;;;;;;;;11.75;9.00;22.90;40.20;;;;;;111434;1242;46019;-58
2023/04/03 11:14:24;;;;;;;;;10.75;9.00;23.00;40.30;;;;;;111634;1239;54983;-60
2023/04/03 11:17:09;;;;;;;;;10.33;9.33;23.00;40.10;;;;;;111361;1239;53826;-60
2023/04/03 11:19:43;;;;;;;;;11.25;9.75;22.90;40.10;;;;;;111504;1242;49452;-57
2023/04/03 11:22:23;;;;;;;;;10.75;9.75;23.00;40.10;;;;;;111432;1244;49301;-58
2023/04/03 11:25:10;;;;;;;;;12.00;11.00;23.00;40.10;;;;;;111492;1238;47064;-59
2023/04/03 11:28:15;;;;;;;;;14.25;10.75;23.00;40.10;;;;;;111351;1239;56338;-59
2023/04/03 11:31:02;;;;;;;;;11.00;10.00;23.00;40.20;;;;;;111029;1243;54238;-58
2023/04/03 11:33:50;;;;;;;;;13.00;12.00;23.00;40.10;;;;;;111055;1243;49020;-57
2023/04/03 11:36:17;;;;;;;;;11.00;9.75;23.00;40.20;;;;;;111267;1240;49476;-56
2023/04/03 11:38:46;;;;;;;;;12.50;11.00;23.00;40.10;;;;;;111499;1242;45412;-57
2023/04/03 11:41:14;;;;;;;;;11.75;10.50;23.00;40.00;;;;;;111538;1238;56573;-57
2023/04/03 11:43:56;;;;;;;;;11.75;10.75;23.00;40.10;;;;;;111465;1238;53993;-57
2023/04/03 11:46:56;;;;;;;;;10.67;9.67;23.00;40.40;;;;;;111318;1237;49727;-58
2023/04/03 11:49:52;;;;;;;;;10.00;9.00;23.00;39.90;;;;;;111527;1238;50552;-58
2023/04/03 11:52:42;;;;;;;;;12.75;10.00;23.00;39.80;;;;;;111741;1242;46473;-58
2023/04/03 11:55:21;;;;;;;;;11.25;10.00;23.10;39.70;;;;;;111477;1237;56706;-61
2023/04/03 11:57:54;;;;;;;;;11.00;10.00;23.10;39.70;;;;;;111629;1243;53858;-63
2023/04/03 12:00:43;;;;;;;;;12.33;11.00;23.10;39.70;;;;;;111481;1237;49269;-59
2023/04/03 12:03:26;;;;;;;;;10.50;9.50;23.00;39.70;;;;;;111487;1243;49397;-62
2023/04/03 12:06:17;;;;;;;;;13.00;10.00;23.00;39.50;;;;;;111541;1238;45906;-61
2023/04/03 12:08:51;;;;;;;;;11.00;9.75;23.00;39.50;;;;;;111631;1238;56528;-58
2023/04/03 12:11:26;;;;;;;;;12.75;10.75;23.00;39.90;;;;;;111462;1243;53720;-60
2023/04/03 12:13:55;;;;;;;;;11.00;9.75;23.10;40.00;;;;;;111647;1242;50083;-60
2023/04/03 12:16:26;;;;;;;;;14.33;11.33;23.10;39.50;;;;;;111603;1239;48912;-61
2023/04/03 12:18:53;;;;;;;;;11.00;9.00;23.10;39.60;;;;;;111581;1242;45742;-57
2023/04/03 12:21:27;;;;;;;;;12.75;10.50;23.10;39.60;;;;;;111518;1237;56168;-58
2023/04/03 12:24:03;;;;;;;;;11.00;10.00;23.00;39.50;;;;;;111512;1242;54537;-57
2023/04/03 12:26:50;;;;;;;;;13.25;10.75;22.90;39.80;;;;;;111384;1238;49390;-58
2023/04/03 12:29:23;;;;;;;;;11.75;10.75;22.90;39.80;;;;;;111566;1237;50199;-57
2023/04/03 12:32:24;;;;;;;;;12.50;11.50;22.90;39.80;;;;;;111562;1243;45767;-59
2023/04/03 12:34:57;;;;;;;;;11.00;10.00;22.90;40.00;;;;;;111439;1238;57039;-56
2023/04/03 12:37:45;;;;;;;;;12.75;11.75;22.90;40.00;;;;;;111472;1242;54270;-58